sensor_id;sensor_type;location;lat;lon;timestamp;P1;durP1;ratioP1;P2;durP2;ratioP2
59145;SDS011;44928;53.074;6.646;2022-11-20T00:00:03;24.08;;;15.50;;
59145;SDS011;44928;53.074;6.646;2022-11-20T00:02:30;25.80;;;14.15;;
59145;SDS011;44928;53.074;6.646;2022-11-20T00:04:55;25.33;;;14.80;;
59145;SDS011;44928;53.074;6.646;2022-11-20T00:07:21;24.02;;;15.00;;
59145;SDS011;44928;53.074;6.646;2022-11-20T00:09:47;21.85;;;13.45;;
59145;SDS011;44928;53.074;6.646;2022-11-20T00:12:12;20.10;;;13.40;;
59145;SDS011;44928;53.074;6.646;2022-11-20T00:14:38;21.00;;;14.45;;
59145;SDS011;44928;53.074;6.646;2022-11-20T00:17:04;21.17;;;13.88;;
59145;SDS011;44928;53.074;6.646;2022-11-20T00:19:30;20.67;;;13.05;;
59145;SDS011;44928;53.074;6.646;2022-11-20T00:21:55;24.67;;;12.77;;
59145;SDS011;44928;53.074;6.646;2022-11-20T00:24:21;19.30;;;12.40;;
59145;SDS011;44928;53.074;6.646;2022-11-20T00:26:47;21.20;;;13.43;;
59145;SDS011;44928;53.074;6.646;2022-11-20T00:29:12;23.70;;;13.45;;
59145;SDS011;44928;53.074;6.646;2022-11-20T00:31:38;23.30;;;14.25;;
59145;SDS011;44928;53.074;6.646;2022-11-20T00:34:04;18.65;;;12.32;;
59145;SDS011;44928;53.074;6.646;2022-11-20T00:36:31;21.88;;;12.80;;
59145;SDS011;44928;53.074;6.646;2022-11-20T00:38:59;20.13;;;12.38;;
59145;SDS011;44928;53.074;6.646;2022-11-20T00:41:26;18.73;;;11.32;;
59145;SDS011;44928;53.074;6.646;2022-11-20T00:43:53;19.75;;;13.02;;
59145;SDS011;44928;53.074;6.646;2022-11-20T00:46:21;18.65;;;11.65;;
59145;SDS011;44928;53.074;6.646;2022-11-20T00:48:48;19.08;;;12.05;;
59145;SDS011;44928;53.074;6.646;2022-11-20T00:51:14;18.98;;;12.43;;
59145;SDS011;44928;53.074;6.646;2022-11-20T00:53:42;20.25;;;11.95;;
59145;SDS011;44928;53.074;6.646;2022-11-20T00:56:12;20.23;;;12.40;;
59145;SDS011;44928;53.074;6.646;2022-11-20T01:01:06;19.02;;;11.48;;
59145;SDS011;44928;53.074;6.646;2022-11-20T01:03:41;18.15;;;11.45;;
59145;SDS011;44928;53.074;6.646;2022-11-20T01:06:12;17.50;;;11.23;;
59145;SDS011;44928;53.074;6.646;2022-11-20T01:08:40;20.27;;;12.30;;
59145;SDS011;44928;53.074;6.646;2022-11-20T01:11:07;17.88;;;11.32;;
59145;SDS011;44928;53.074;6.646;2022-11-20T01:13:37;18.90;;;12.10;;
59145;SDS011;44928;53.074;6.646;2022-11-20T01:18:38;19.83;;;11.82;;
59145;SDS011;44928;53.074;6.646;2022-11-20T01:21:10;18.17;;;11.55;;
59145;SDS011;44928;53.074;6.646;2022-11-20T01:23:40;17.80;;;10.60;;
59145;SDS011;44928;53.074;6.646;2022-11-20T01:26:08;21.35;;;11.95;;
59145;SDS011;44928;53.074;6.646;2022-11-20T01:28:35;17.05;;;10.75;;
59145;SDS011;44928;53.074;6.646;2022-11-20T01:31:02;18.85;;;11.30;;
59145;SDS011;44928;53.074;6.646;2022-11-20T01:33:39;18.15;;;11.30;;
59145;SDS011;44928;53.074;6.646;2022-11-20T01:36:06;18.73;;;11.50;;
59145;SDS011;44928;53.074;6.646;2022-11-20T01:38:33;16.98;;;10.68;;
59145;SDS011;44928;53.074;6.646;2022-11-20T01:40:59;17.23;;;10.15;;
59145;SDS011;44928;53.074;6.646;2022-11-20T01:43:25;17.67;;;10.35;;
59145;SDS011;44928;53.074;6.646;2022-11-20T01:48:26;17.42;;;10.80;;
59145;SDS011;44928;53.074;6.646;2022-11-20T01:51:17;17.53;;;10.87;;
59145;SDS011;44928;53.074;6.646;2022-11-20T01:53:50;18.52;;;11.15;;
59145;SDS011;44928;53.074;6.646;2022-11-20T01:56:19;17.02;;;10.80;;
59145;SDS011;44928;53.074;6.646;2022-11-20T01:58:47;17.00;;;10.52;;
59145;SDS011;44928;53.074;6.646;2022-11-20T02:01:16;17.08;;;10.48;;
59145;SDS011;44928;53.074;6.646;2022-11-20T02:03:42;18.95;;;11.07;;
59145;SDS011;44928;53.074;6.646;2022-11-20T02:08:53;16.48;;;10.05;;
59145;SDS011;44928;53.074;6.646;2022-11-20T02:11:20;18.30;;;10.30;;
59145;SDS011;44928;53.074;6.646;2022-11-20T02:13:46;16.02;;;9.75;;
59145;SDS011;44928;53.074;6.646;2022-11-20T02:18:44;17.58;;;9.77;;
59145;SDS011;44928;53.074;6.646;2022-11-20T02:26:28;17.77;;;9.68;;
59145;SDS011;44928;53.074;6.646;2022-11-20T02:28:57;16.67;;;9.95;;
59145;SDS011;44928;53.074;6.646;2022-11-20T02:31:25;16.80;;;10.15;;
59145;SDS011;44928;53.074;6.646;2022-11-20T02:33:57;16.80;;;9.88;;
59145;SDS011;44928;53.074;6.646;2022-11-20T02:36:23;16.90;;;10.05;;
59145;SDS011;44928;53.074;6.646;2022-11-20T02:38:51;16.90;;;10.07;;
59145;SDS011;44928;53.074;6.646;2022-11-20T02:41:17;16.38;;;9.48;;
59145;SDS011;44928;53.074;6.646;2022-11-20T02:43:43;16.27;;;9.52;;
59145;SDS011;44928;53.074;6.646;2022-11-20T02:46:09;16.77;;;9.77;;
59145;SDS011;44928;53.074;6.646;2022-11-20T02:48:35;16.65;;;9.85;;
59145;SDS011;44928;53.074;6.646;2022-11-20T02:51:01;16.48;;;10.20;;
59145;SDS011;44928;53.074;6.646;2022-11-20T02:53:27;15.40;;;9.20;;
59145;SDS011;44928;53.074;6.646;2022-11-20T02:55:53;16.60;;;9.95;;
59145;SDS011;44928;53.074;6.646;2022-11-20T02:58:18;14.40;;;9.10;;
59145;SDS011;44928;53.074;6.646;2022-11-20T03:00:44;16.15;;;9.43;;
59145;SDS011;44928;53.074;6.646;2022-11-20T03:03:10;15.25;;;8.60;;
59145;SDS011;44928;53.074;6.646;2022-11-20T03:05:36;45.45;;;20.33;;
59145;SDS011;44928;53.074;6.646;2022-11-20T03:08:01;35.80;;;17.73;;
59145;SDS011;44928;53.074;6.646;2022-11-20T03:10:27;34.85;;;16.83;;
59145;SDS011;44928;53.074;6.646;2022-11-20T03:12:53;24.08;;;12.25;;
59145;SDS011;44928;53.074;6.646;2022-11-20T03:15:23;18.35;;;10.77;;
59145;SDS011;44928;53.074;6.646;2022-11-20T03:17:49;21.50;;;11.85;;
59145;SDS011;44928;53.074;6.646;2022-11-20T03:20:18;22.70;;;11.82;;
59145;SDS011;44928;53.074;6.646;2022-11-20T03:22:44;18.42;;;10.23;;
59145;SDS011;44928;53.074;6.646;2022-11-20T03:25:10;19.48;;;11.48;;
59145;SDS011;44928;53.074;6.646;2022-11-20T03:27:36;17.02;;;9.50;;
59145;SDS011;44928;53.074;6.646;2022-11-20T03:30:02;16.98;;;9.55;;
59145;SDS011;44928;53.074;6.646;2022-11-20T03:32:28;15.55;;;10.00;;
59145;SDS011;44928;53.074;6.646;2022-11-20T03:34:54;19.05;;;10.27;;
59145;SDS011;44928;53.074;6.646;2022-11-20T03:37:20;21.42;;;11.95;;
59145;SDS011;44928;53.074;6.646;2022-11-20T03:39:46;18.55;;;10.50;;
59145;SDS011;44928;53.074;6.646;2022-11-20T03:42:11;22.85;;;14.02;;
59145;SDS011;44928;53.074;6.646;2022-11-20T03:44:56;25.20;;;15.00;;
59145;SDS011;44928;53.074;6.646;2022-11-20T03:47:21;26.45;;;14.23;;
59145;SDS011;44928;53.074;6.646;2022-11-20T03:49:47;21.00;;;11.27;;
59145;SDS011;44928;53.074;6.646;2022-11-20T03:52:13;17.85;;;10.35;;
59145;SDS011;44928;53.074;6.646;2022-11-20T03:54:38;16.48;;;9.55;;
59145;SDS011;44928;53.074;6.646;2022-11-20T03:57:04;16.45;;;9.07;;
59145;SDS011;44928;53.074;6.646;2022-11-20T03:59:30;16.33;;;9.60;;
59145;SDS011;44928;53.074;6.646;2022-11-20T04:01:56;15.85;;;9.75;;
59145;SDS011;44928;53.074;6.646;2022-11-20T04:04:21;14.75;;;8.50;;
59145;SDS011;44928;53.074;6.646;2022-11-20T04:06:47;15.85;;;9.60;;
59145;SDS011;44928;53.074;6.646;2022-11-20T04:09:13;16.45;;;9.07;;
59145;SDS011;44928;53.074;6.646;2022-11-20T04:11:39;16.27;;;9.30;;
59145;SDS011;44928;53.074;6.646;2022-11-20T04:14:06;16.70;;;9.57;;
59145;SDS011;44928;53.074;6.646;2022-11-20T04:16:37;14.80;;;8.90;;
59145;SDS011;44928;53.074;6.646;2022-11-20T04:19:05;16.25;;;9.18;;
59145;SDS011;44928;53.074;6.646;2022-11-20T04:21:34;14.35;;;8.68;;
59145;SDS011;44928;53.074;6.646;2022-11-20T04:24:00;15.43;;;9.40;;
59145;SDS011;44928;53.074;6.646;2022-11-20T04:26:26;16.08;;;9.38;;
59145;SDS011;44928;53.074;6.646;2022-11-20T04:28:54;16.30;;;8.88;;
59145;SDS011;44928;53.074;6.646;2022-11-20T04:31:23;14.20;;;8.50;;
59145;SDS011;44928;53.074;6.646;2022-11-20T04:33:51;14.55;;;8.80;;
59145;SDS011;44928;53.074;6.646;2022-11-20T04:36:21;15.57;;;9.18;;
59145;SDS011;44928;53.074;6.646;2022-11-20T04:38:52;16.25;;;9.75;;
59145;SDS011;44928;53.074;6.646;2022-11-20T04:41:19;20.95;;;13.07;;
59145;SDS011;44928;53.074;6.646;2022-11-20T04:43:47;19.60;;;10.52;;
59145;SDS011;44928;53.074;6.646;2022-11-20T04:46:14;16.00;;;9.30;;
59145;SDS011;44928;53.074;6.646;2022-11-20T04:48:40;14.77;;;8.88;;
59145;SDS011;44928;53.074;6.646;2022-11-20T04:51:06;17.25;;;9.63;;
59145;SDS011;44928;53.074;6.646;2022-11-20T04:53:32;14.68;;;8.75;;
59145;SDS011;44928;53.074;6.646;2022-11-20T04:56:01;15.43;;;9.15;;
59145;SDS011;44928;53.074;6.646;2022-11-20T04:58:28;14.93;;;9.00;;
59145;SDS011;44928;53.074;6.646;2022-11-20T05:01:00;14.65;;;8.63;;
59145;SDS011;44928;53.074;6.646;2022-11-20T05:03:34;15.27;;;8.80;;
59145;SDS011;44928;53.074;6.646;2022-11-20T05:06:00;15.75;;;8.88;;
59145;SDS011;44928;53.074;6.646;2022-11-20T05:08:28;14.77;;;9.20;;
59145;SDS011;44928;53.074;6.646;2022-11-20T05:10:59;13.70;;;7.90;;
59145;SDS011;44928;53.074;6.646;2022-11-20T05:13:26;14.75;;;8.82;;
59145;SDS011;44928;53.074;6.646;2022-11-20T05:15:52;14.95;;;8.55;;
59145;SDS011;44928;53.074;6.646;2022-11-20T05:18:18;15.77;;;8.77;;
59145;SDS011;44928;53.074;6.646;2022-11-20T05:20:43;14.82;;;8.82;;
59145;SDS011;44928;53.074;6.646;2022-11-20T05:23:09;15.63;;;8.88;;
59145;SDS011;44928;53.074;6.646;2022-11-20T05:25:35;15.07;;;8.90;;
59145;SDS011;44928;53.074;6.646;2022-11-20T05:28:01;14.23;;;8.25;;
59145;SDS011;44928;53.074;6.646;2022-11-20T05:30:26;14.95;;;8.43;;
59145;SDS011;44928;53.074;6.646;2022-11-20T05:32:52;14.50;;;8.65;;
59145;SDS011;44928;53.074;6.646;2022-11-20T05:35:18;15.30;;;8.90;;
59145;SDS011;44928;53.074;6.646;2022-11-20T05:37:44;13.35;;;8.30;;
59145;SDS011;44928;53.074;6.646;2022-11-20T05:40:09;14.15;;;8.48;;
59145;SDS011;44928;53.074;6.646;2022-11-20T05:42:36;13.90;;;8.02;;
59145;SDS011;44928;53.074;6.646;2022-11-20T05:45:02;14.20;;;8.32;;
59145;SDS011;44928;53.074;6.646;2022-11-20T05:47:32;13.23;;;7.63;;
59145;SDS011;44928;53.074;6.646;2022-11-20T05:49:58;14.70;;;8.65;;
59145;SDS011;44928;53.074;6.646;2022-11-20T05:52:24;14.65;;;8.15;;
59145;SDS011;44928;53.074;6.646;2022-11-20T05:54:53;14.52;;;8.23;;
59145;SDS011;44928;53.074;6.646;2022-11-20T05:57:18;14.60;;;8.30;;
59145;SDS011;44928;53.074;6.646;2022-11-20T05:59:44;13.63;;;8.43;;
59145;SDS011;44928;53.074;6.646;2022-11-20T06:02:10;13.70;;;8.38;;
59145;SDS011;44928;53.074;6.646;2022-11-20T06:04:36;13.35;;;7.80;;
59145;SDS011;44928;53.074;6.646;2022-11-20T06:07:01;13.05;;;7.70;;
59145;SDS011;44928;53.074;6.646;2022-11-20T06:09:27;14.70;;;8.25;;
59145;SDS011;44928;53.074;6.646;2022-11-20T06:11:54;13.55;;;8.32;;
59145;SDS011;44928;53.074;6.646;2022-11-20T06:14:19;14.45;;;8.55;;
59145;SDS011;44928;53.074;6.646;2022-11-20T06:16:45;14.18;;;8.32;;
59145;SDS011;44928;53.074;6.646;2022-11-20T06:19:11;14.30;;;8.25;;
59145;SDS011;44928;53.074;6.646;2022-11-20T06:21:37;15.13;;;8.45;;
59145;SDS011;44928;53.074;6.646;2022-11-20T06:24:02;13.48;;;8.00;;
59145;SDS011;44928;53.074;6.646;2022-11-20T06:26:28;13.18;;;7.85;;
59145;SDS011;44928;53.074;6.646;2022-11-20T06:28:55;13.43;;;7.25;;
59145;SDS011;44928;53.074;6.646;2022-11-20T06:31:22;14.27;;;8.00;;
59145;SDS011;44928;53.074;6.646;2022-11-20T06:33:50;14.18;;;8.05;;
59145;SDS011;44928;53.074;6.646;2022-11-20T06:36:16;14.68;;;7.03;;
59145;SDS011;44928;53.074;6.646;2022-11-20T06:38:44;14.65;;;7.93;;
59145;SDS011;44928;53.074;6.646;2022-11-20T06:41:11;14.80;;;8.20;;
59145;SDS011;44928;53.074;6.646;2022-11-20T06:43:42;13.10;;;7.50;;
59145;SDS011;44928;53.074;6.646;2022-11-20T06:46:09;13.75;;;7.82;;
59145;SDS011;44928;53.074;6.646;2022-11-20T06:48:36;13.77;;;7.65;;
59145;SDS011;44928;53.074;6.646;2022-11-20T06:51:03;12.80;;;7.15;;
59145;SDS011;44928;53.074;6.646;2022-11-20T06:53:29;12.02;;;7.03;;
59145;SDS011;44928;53.074;6.646;2022-11-20T06:55:55;13.93;;;7.45;;
59145;SDS011;44928;53.074;6.646;2022-11-20T06:58:23;12.80;;;7.38;;
59145;SDS011;44928;53.074;6.646;2022-11-20T07:00:51;12.38;;;7.25;;
59145;SDS011;44928;53.074;6.646;2022-11-20T07:03:17;12.75;;;7.50;;
59145;SDS011;44928;53.074;6.646;2022-11-20T07:05:42;13.15;;;7.35;;
59145;SDS011;44928;53.074;6.646;2022-11-20T07:08:10;11.82;;;6.60;;
59145;SDS011;44928;53.074;6.646;2022-11-20T07:10:36;14.80;;;8.68;;
59145;SDS011;44928;53.074;6.646;2022-11-20T07:13:02;12.77;;;8.13;;
59145;SDS011;44928;53.074;6.646;2022-11-20T07:15:27;12.15;;;7.97;;
59145;SDS011;44928;53.074;6.646;2022-11-20T07:17:53;13.02;;;7.35;;
59145;SDS011;44928;53.074;6.646;2022-11-20T07:20:19;12.65;;;7.45;;
59145;SDS011;44928;53.074;6.646;2022-11-20T07:22:45;13.80;;;7.55;;
59145;SDS011;44928;53.074;6.646;2022-11-20T07:25:11;15.13;;;9.20;;
59145;SDS011;44928;53.074;6.646;2022-11-20T07:27:36;19.85;;;14.90;;
59145;SDS011;44928;53.074;6.646;2022-11-20T07:30:03;21.50;;;16.95;;
59145;SDS011;44928;53.074;6.646;2022-11-20T07:32:29;13.68;;;9.25;;
59145;SDS011;44928;53.074;6.646;2022-11-20T07:34:55;13.25;;;7.80;;
59145;SDS011;44928;53.074;6.646;2022-11-20T07:37:20;12.43;;;7.20;;
59145;SDS011;44928;53.074;6.646;2022-11-20T07:39:46;13.90;;;8.25;;
59145;SDS011;44928;53.074;6.646;2022-11-20T07:42:12;13.02;;;8.07;;
59145;SDS011;44928;53.074;6.646;2022-11-20T07:44:38;13.65;;;7.80;;
59145;SDS011;44928;53.074;6.646;2022-11-20T07:47:04;14.23;;;7.82;;
59145;SDS011;44928;53.074;6.646;2022-11-20T07:49:30;12.55;;;7.32;;
59145;SDS011;44928;53.074;6.646;2022-11-20T07:51:56;13.05;;;7.07;;
59145;SDS011;44928;53.074;6.646;2022-11-20T07:54:22;13.38;;;8.10;;
59145;SDS011;44928;53.074;6.646;2022-11-20T07:56:48;13.93;;;7.57;;
59145;SDS011;44928;53.074;6.646;2022-11-20T07:59:14;14.35;;;7.93;;
59145;SDS011;44928;53.074;6.646;2022-11-20T08:01:41;15.60;;;8.75;;
59145;SDS011;44928;53.074;6.646;2022-11-20T08:04:08;14.25;;;8.43;;
59145;SDS011;44928;53.074;6.646;2022-11-20T08:06:34;13.77;;;8.45;;
59145;SDS011;44928;53.074;6.646;2022-11-20T08:09:01;13.95;;;8.35;;
59145;SDS011;44928;53.074;6.646;2022-11-20T08:11:27;13.07;;;7.72;;
59145;SDS011;44928;53.074;6.646;2022-11-20T08:14:11;13.68;;;8.00;;
59145;SDS011;44928;53.074;6.646;2022-11-20T08:16:44;14.43;;;8.15;;
59145;SDS011;44928;53.074;6.646;2022-11-20T08:19:12;14.23;;;8.65;;
59145;SDS011;44928;53.074;6.646;2022-11-20T08:21:39;12.88;;;7.63;;
59145;SDS011;44928;53.074;6.646;2022-11-20T08:24:05;12.88;;;7.93;;
59145;SDS011;44928;53.074;6.646;2022-11-20T08:26:32;13.38;;;7.82;;
59145;SDS011;44928;53.074;6.646;2022-11-20T08:28:58;14.30;;;8.50;;
59145;SDS011;44928;53.074;6.646;2022-11-20T08:31:25;12.65;;;7.00;;
59145;SDS011;44928;53.074;6.646;2022-11-20T08:33:51;12.35;;;6.93;;
59145;SDS011;44928;53.074;6.646;2022-11-20T08:36:18;13.40;;;7.97;;
59145;SDS011;44928;53.074;6.646;2022-11-20T08:38:47;13.25;;;7.45;;
59145;SDS011;44928;53.074;6.646;2022-11-20T08:41:14;12.80;;;6.97;;
59145;SDS011;44928;53.074;6.646;2022-11-20T08:43:59;12.23;;;7.05;;
59145;SDS011;44928;53.074;6.646;2022-11-20T08:46:36;11.82;;;7.18;;
59145;SDS011;44928;53.074;6.646;2022-11-20T08:49:08;13.38;;;7.72;;
59145;SDS011;44928;53.074;6.646;2022-11-20T08:51:36;12.20;;;6.82;;
59145;SDS011;44928;53.074;6.646;2022-11-20T08:54:02;14.43;;;7.93;;
59145;SDS011;44928;53.074;6.646;2022-11-20T08:56:29;13.07;;;7.82;;
59145;SDS011;44928;53.074;6.646;2022-11-20T08:58:55;13.20;;;6.80;;
59145;SDS011;44928;53.074;6.646;2022-11-20T09:01:21;12.35;;;7.18;;
59145;SDS011;44928;53.074;6.646;2022-11-20T09:03:48;12.02;;;6.85;;
59145;SDS011;44928;53.074;6.646;2022-11-20T09:06:14;11.80;;;6.50;;
59145;SDS011;44928;53.074;6.646;2022-11-20T09:08:40;12.40;;;6.65;;
59145;SDS011;44928;53.074;6.646;2022-11-20T09:11:06;12.50;;;6.95;;
59145;SDS011;44928;53.074;6.646;2022-11-20T09:13:33;11.20;;;6.32;;
59145;SDS011;44928;53.074;6.646;2022-11-20T09:16:04;11.57;;;6.70;;
59145;SDS011;44928;53.074;6.646;2022-11-20T09:18:32;11.80;;;6.65;;
59145;SDS011;44928;53.074;6.646;2022-11-20T09:21:01;12.23;;;7.10;;
59145;SDS011;44928;53.074;6.646;2022-11-20T09:23:34;12.45;;;6.70;;
59145;SDS011;44928;53.074;6.646;2022-11-20T09:26:10;11.32;;;6.45;;
59145;SDS011;44928;53.074;6.646;2022-11-20T09:28:37;12.75;;;6.70;;
59145;SDS011;44928;53.074;6.646;2022-11-20T09:31:15;13.45;;;6.57;;
59145;SDS011;44928;53.074;6.646;2022-11-20T09:33:46;12.48;;;7.18;;
59145;SDS011;44928;53.074;6.646;2022-11-20T09:36:12;12.57;;;7.20;;
59145;SDS011;44928;53.074;6.646;2022-11-20T09:38:38;11.88;;;7.30;;
59145;SDS011;44928;53.074;6.646;2022-11-20T09:41:05;12.90;;;7.75;;
59145;SDS011;44928;53.074;6.646;2022-11-20T09:43:36;12.68;;;6.50;;
59145;SDS011;44928;53.074;6.646;2022-11-20T09:56:49;12.82;;;7.07;;
59145;SDS011;44928;53.074;6.646;2022-11-20T10:10:56;13.27;;;6.78;;
59145;SDS011;44928;53.074;6.646;2022-11-20T10:16:17;12.35;;;7.32;;
59145;SDS011;44928;53.074;6.646;2022-11-20T10:32:38;11.68;;;7.13;;
59145;SDS011;44928;53.074;6.646;2022-11-20T10:37:49;11.88;;;6.50;;
59145;SDS011;44928;53.074;6.646;2022-11-20T10:40:23;12.13;;;7.05;;
59145;SDS011;44928;53.074;6.646;2022-11-20T10:42:58;12.07;;;6.65;;
59145;SDS011;44928;53.074;6.646;2022-11-20T10:45:36;13.10;;;6.55;;
59145;SDS011;44928;53.074;6.646;2022-11-20T10:48:22;11.55;;;6.38;;
59145;SDS011;44928;53.074;6.646;2022-11-20T10:51:35;11.13;;;6.10;;
59145;SDS011;44928;53.074;6.646;2022-11-20T10:53:56;11.95;;;6.07;;
59145;SDS011;44928;53.074;6.646;2022-11-20T10:56:52;12.55;;;6.95;;
59145;SDS011;44928;53.074;6.646;2022-11-20T11:02:20;11.88;;;6.10;;
59145;SDS011;44928;53.074;6.646;2022-11-20T11:04:54;12.10;;;6.18;;
59145;SDS011;44928;53.074;6.646;2022-11-20T11:07:35;11.57;;;6.50;;
59145;SDS011;44928;53.074;6.646;2022-11-20T11:10:12;11.45;;;6.50;;
59145;SDS011;44928;53.074;6.646;2022-11-20T11:12:57;10.50;;;6.03;;
59145;SDS011;44928;53.074;6.646;2022-11-20T11:15:27;11.27;;;6.10;;
59145;SDS011;44928;53.074;6.646;2022-11-20T11:18:03;10.20;;;5.80;;
59145;SDS011;44928;53.074;6.646;2022-11-20T11:20:30;11.60;;;5.85;;
59145;SDS011;44928;53.074;6.646;2022-11-20T11:22:57;11.23;;;6.05;;
59145;SDS011;44928;53.074;6.646;2022-11-20T11:25:28;10.10;;;5.43;;
59145;SDS011;44928;53.074;6.646;2022-11-20T11:27:59;11.23;;;6.03;;
59145;SDS011;44928;53.074;6.646;2022-11-20T11:30:40;12.85;;;6.25;;
59145;SDS011;44928;53.074;6.646;2022-11-20T11:33:09;11.32;;;6.57;;
59145;SDS011;44928;53.074;6.646;2022-11-20T11:35:45;11.13;;;6.25;;
59145;SDS011;44928;53.074;6.646;2022-11-20T11:41:03;9.90;;;5.57;;
59145;SDS011;44928;53.074;6.646;2022-11-20T11:43:31;10.65;;;5.47;;
59145;SDS011;44928;53.074;6.646;2022-11-20T11:48:55;9.35;;;4.97;;
59145;SDS011;44928;53.074;6.646;2022-11-20T11:51:22;11.98;;;6.15;;
59145;SDS011;44928;53.074;6.646;2022-11-20T11:53:49;9.90;;;5.30;;
59145;SDS011;44928;53.074;6.646;2022-11-20T11:56:15;8.95;;;4.80;;
59145;SDS011;44928;53.074;6.646;2022-11-20T12:06:50;9.63;;;5.13;;
59145;SDS011;44928;53.074;6.646;2022-11-20T12:09:21;9.40;;;5.03;;
59145;SDS011;44928;53.074;6.646;2022-11-20T12:11:54;9.02;;;4.65;;
59145;SDS011;44928;53.074;6.646;2022-11-20T12:14:33;9.55;;;4.25;;
59145;SDS011;44928;53.074;6.646;2022-11-20T12:17:03;10.63;;;4.75;;
59145;SDS011;44928;53.074;6.646;2022-11-20T12:19:30;8.82;;;4.28;;
59145;SDS011;44928;53.074;6.646;2022-11-20T12:24:58;9.30;;;3.97;;
59145;SDS011;44928;53.074;6.646;2022-11-20T12:35:25;9.43;;;4.70;;
59145;SDS011;44928;53.074;6.646;2022-11-20T12:40:41;10.45;;;4.88;;
59145;SDS011;44928;53.074;6.646;2022-11-20T12:43:28;9.90;;;4.45;;
59145;SDS011;44928;53.074;6.646;2022-11-20T12:46:32;20.45;;;10.35;;
59145;SDS011;44928;53.074;6.646;2022-11-20T12:52:20;10.00;;;4.68;;
59145;SDS011;44928;53.074;6.646;2022-11-20T12:58:08;9.93;;;5.03;;
59145;SDS011;44928;53.074;6.646;2022-11-20T13:00:56;10.07;;;5.38;;
59145;SDS011;44928;53.074;6.646;2022-11-20T13:06:18;10.15;;;4.60;;
59145;SDS011;44928;53.074;6.646;2022-11-20T13:08:49;11.10;;;5.70;;
59145;SDS011;44928;53.074;6.646;2022-11-20T13:16:33;12.23;;;5.07;;
59145;SDS011;44928;53.074;6.646;2022-11-20T13:19:20;9.60;;;5.03;;
59145;SDS011;44928;53.074;6.646;2022-11-20T13:21:47;10.05;;;4.88;;
59145;SDS011;44928;53.074;6.646;2022-11-20T13:26:59;9.82;;;4.75;;
59145;SDS011;44928;53.074;6.646;2022-11-20T13:32:28;9.20;;;4.45;;
59145;SDS011;44928;53.074;6.646;2022-11-20T13:34:57;10.20;;;5.20;;
59145;SDS011;44928;53.074;6.646;2022-11-20T13:42:45;9.90;;;5.35;;
59145;SDS011;44928;53.074;6.646;2022-11-20T13:45:23;10.23;;;5.00;;
59145;SDS011;44928;53.074;6.646;2022-11-20T13:47:52;9.57;;;4.82;;
59145;SDS011;44928;53.074;6.646;2022-11-20T13:50:19;11.70;;;5.10;;
59145;SDS011;44928;53.074;6.646;2022-11-20T14:00:48;9.75;;;5.05;;
59145;SDS011;44928;53.074;6.646;2022-11-20T14:03:24;9.93;;;4.72;;
59145;SDS011;44928;53.074;6.646;2022-11-20T14:05:58;10.63;;;5.28;;
59145;SDS011;44928;53.074;6.646;2022-11-20T14:11:19;9.07;;;4.88;;
59145;SDS011;44928;53.074;6.646;2022-11-20T14:13:51;10.13;;;5.47;;
59145;SDS011;44928;53.074;6.646;2022-11-20T14:16:31;9.38;;;5.10;;
59145;SDS011;44928;53.074;6.646;2022-11-20T14:19:23;8.73;;;4.25;;
59145;SDS011;44928;53.074;6.646;2022-11-20T14:21:44;9.95;;;5.18;;
59145;SDS011;44928;53.074;6.646;2022-11-20T14:24:12;10.57;;;4.90;;
59145;SDS011;44928;53.074;6.646;2022-11-20T14:26:42;11.15;;;5.32;;
59145;SDS011;44928;53.074;6.646;2022-11-20T14:29:16;10.85;;;5.43;;
59145;SDS011;44928;53.074;6.646;2022-11-20T14:31:44;9.85;;;4.65;;
59145;SDS011;44928;53.074;6.646;2022-11-20T14:34:15;10.07;;;5.22;;
59145;SDS011;44928;53.074;6.646;2022-11-20T14:36:43;10.57;;;5.30;;
59145;SDS011;44928;53.074;6.646;2022-11-20T14:39:22;10.82;;;5.68;;
59145;SDS011;44928;53.074;6.646;2022-11-20T14:41:56;9.93;;;4.72;;
59145;SDS011;44928;53.074;6.646;2022-11-20T14:44:34;11.55;;;5.80;;
59145;SDS011;44928;53.074;6.646;2022-11-20T14:47:01;10.85;;;5.70;;
59145;SDS011;44928;53.074;6.646;2022-11-20T14:49:29;10.15;;;5.53;;
59145;SDS011;44928;53.074;6.646;2022-11-20T14:52:00;10.07;;;5.25;;
59145;SDS011;44928;53.074;6.646;2022-11-20T14:54:28;11.18;;;5.50;;
59145;SDS011;44928;53.074;6.646;2022-11-20T14:57:00;10.93;;;5.78;;
59145;SDS011;44928;53.074;6.646;2022-11-20T14:59:29;12.02;;;6.03;;
59145;SDS011;44928;53.074;6.646;2022-11-20T15:02:05;10.77;;;6.10;;
59145;SDS011;44928;53.074;6.646;2022-11-20T15:04:51;11.00;;;6.22;;
59145;SDS011;44928;53.074;6.646;2022-11-20T15:07:46;11.27;;;6.15;;
59145;SDS011;44928;53.074;6.646;2022-11-20T15:10:13;12.07;;;6.82;;
59145;SDS011;44928;53.074;6.646;2022-11-20T15:15:25;12.95;;;6.93;;
59145;SDS011;44928;53.074;6.646;2022-11-20T15:17:55;12.43;;;7.13;;
59145;SDS011;44928;53.074;6.646;2022-11-20T15:20:21;11.35;;;6.40;;
59145;SDS011;44928;53.074;6.646;2022-11-20T15:22:53;11.80;;;6.53;;
59145;SDS011;44928;53.074;6.646;2022-11-20T15:25:19;11.43;;;6.00;;
59145;SDS011;44928;53.074;6.646;2022-11-20T15:27:45;11.73;;;6.93;;
59145;SDS011;44928;53.074;6.646;2022-11-20T15:30:15;12.73;;;6.72;;
59145;SDS011;44928;53.074;6.646;2022-11-20T15:32:43;11.68;;;6.28;;
59145;SDS011;44928;53.074;6.646;2022-11-20T15:35:09;12.35;;;7.13;;
59145;SDS011;44928;53.074;6.646;2022-11-20T15:37:36;12.15;;;7.47;;
59145;SDS011;44928;53.074;6.646;2022-11-20T15:40:02;12.00;;;7.68;;
59145;SDS011;44928;53.074;6.646;2022-11-20T15:42:28;12.77;;;7.60;;
59145;SDS011;44928;53.074;6.646;2022-11-20T15:44:54;12.88;;;7.15;;
59145;SDS011;44928;53.074;6.646;2022-11-20T15:47:21;12.90;;;7.25;;
59145;SDS011;44928;53.074;6.646;2022-11-20T15:49:59;13.00;;;7.85;;
59145;SDS011;44928;53.074;6.646;2022-11-20T15:52:25;13.50;;;7.88;;
59145;SDS011;44928;53.074;6.646;2022-11-20T15:54:51;13.98;;;7.38;;
59145;SDS011;44928;53.074;6.646;2022-11-20T15:57:17;13.75;;;7.90;;
59145;SDS011;44928;53.074;6.646;2022-11-20T15:59:43;13.57;;;7.97;;
59145;SDS011;44928;53.074;6.646;2022-11-20T16:02:11;12.70;;;8.00;;
59145;SDS011;44928;53.074;6.646;2022-11-20T16:04:38;13.15;;;8.63;;
59145;SDS011;44928;53.074;6.646;2022-11-20T16:07:04;12.32;;;8.05;;
59145;SDS011;44928;53.074;6.646;2022-11-20T16:09:30;13.18;;;8.10;;
59145;SDS011;44928;53.074;6.646;2022-11-20T16:11:56;12.70;;;8.23;;
59145;SDS011;44928;53.074;6.646;2022-11-20T16:14:24;14.68;;;8.40;;
59145;SDS011;44928;53.074;6.646;2022-11-20T16:17:09;14.18;;;7.40;;
59145;SDS011;44928;53.074;6.646;2022-11-20T16:19:35;13.93;;;8.18;;
59145;SDS011;44928;53.074;6.646;2022-11-20T16:22:01;13.32;;;8.45;;
59145;SDS011;44928;53.074;6.646;2022-11-20T16:24:27;14.30;;;8.95;;
59145;SDS011;44928;53.074;6.646;2022-11-20T16:26:53;13.25;;;7.28;;
59145;SDS011;44928;53.074;6.646;2022-11-20T16:29:20;13.45;;;7.82;;
59145;SDS011;44928;53.074;6.646;2022-11-20T16:31:46;14.57;;;7.85;;
59145;SDS011;44928;53.074;6.646;2022-11-20T16:34:11;14.20;;;7.95;;
59145;SDS011;44928;53.074;6.646;2022-11-20T16:36:40;13.75;;;8.30;;
59145;SDS011;44928;53.074;6.646;2022-11-20T16:39:08;15.43;;;8.38;;
59145;SDS011;44928;53.074;6.646;2022-11-20T16:41:34;13.68;;;8.13;;
59145;SDS011;44928;53.074;6.646;2022-11-20T16:44:01;14.25;;;8.27;;
59145;SDS011;44928;53.074;6.646;2022-11-20T16:46:31;14.52;;;8.15;;
59145;SDS011;44928;53.074;6.646;2022-11-20T16:51:24;12.57;;;7.65;;
59145;SDS011;44928;53.074;6.646;2022-11-20T16:53:51;13.38;;;8.20;;